sensor_id;sensor_type;location;lat;lon;timestamp;pressure;altitude;pressure_sealevel;temperature;humidity
55590;BME280;41452;42.780;23.116;2023-04-04T00:01:14;92950.25;;;6.36;100.00
55590;BME280;41452;42.780;23.116;2023-04-04T00:03:40;92949.78;;;6.39;100.00
55590;BME280;41452;42.780;23.116;2023-04-04T00:06:06;92931.06;;;6.25;100.00
55590;BME280;41452;42.780;23.116;2023-04-04T00:08:32;92945.38;;;6.39;100.00
55590;BME280;41452;42.780;23.116;2023-04-04T00:10:58;92951.06;;;6.36;100.00
55590;BME280;41452;42.780;23.116;2023-04-04T00:13:24;92948.56;;;6.41;100.00
55590;BME280;41452;42.780;23.116;2023-04-04T00:15:53;92945.69;;;6.43;100.00
55590;BME280;41452;42.780;23.116;2023-04-04T00:18:19;92948.59;;;6.46;100.00
55590;BME280;41452;42.780;23.116;2023-04-04T00:20:44;92941.13;;;6.33;100.00
55590;BME280;41452;42.780;23.116;2023-04-04T00:23:10;92939.38;;;6.39;100.00
55590;BME280;41452;42.780;23.116;2023-04-04T00:25:38;92939.13;;;6.40;100.00
55590;BME280;41452;42.780;23.116;2023-04-04T00:28:04;92942.22;;;6.37;100.00
55590;BME280;41452;42.780;23.116;2023-04-04T00:30:29;92941.91;;;6.34;100.00
55590;BME280;41452;42.780;23.116;2023-04-04T00:32:55;92941.13;;;6.33;100.00
55590;BME280;41452;42.780;23.116;2023-04-04T00:35:22;92938.44;;;6.28;100.00
55590;BME280;41452;42.780;23.116;2023-04-04T00:37:47;92932.13;;;6.24;100.00
55590;BME280;41452;42.780;23.116;2023-04-04T00:40:13;92927.38;;;6.21;100.00
55590;BME280;41452;42.780;23.116;2023-04-04T00:42:38;92924.75;;;6.21;100.00
55590;BME280;41452;42.780;23.116;2023-04-04T00:45:05;92920.50;;;6.15;100.00
55590;BME280;41452;42.780;23.116;2023-04-04T00:47:31;92902.88;;;6.05;100.00
55590;BME280;41452;42.780;23.116;2023-04-04T00:49:57;92910.41;;;6.18;100.00
55590;BME280;41452;42.780;23.116;2023-04-04T00:52:23;92905.41;;;6.17;100.00
55590;BME280;41452;42.780;23.116;2023-04-04T00:54:48;92903.91;;;6.21;100.00
55590;BME280;41452;42.780;23.116;2023-04-04T00:57:14;92909.97;;;6.26;100.00
55590;BME280;41452;42.780;23.116;2023-04-04T00:59:41;92897.81;;;6.32;100.00
55590;BME280;41452;42.780;23.116;2023-04-04T01:02:07;92894.41;;;6.32;100.00
55590;BME280;41452;42.780;23.116;2023-04-04T01:04:33;92905.22;;;6.40;100.00
55590;BME280;41452;42.780;23.116;2023-04-04T01:06:59;92905.53;;;6.44;100.00
55590;BME280;41452;42.780;23.116;2023-04-04T01:09:27;92892.28;;;6.45;100.00
55590;BME280;41452;42.780;23.116;2023-04-04T01:11:54;92861.19;;;6.22;100.00
55590;BME280;41452;42.780;23.116;2023-04-04T01:14:20;92915.88;;;6.56;100.00
55590;BME280;41452;42.780;23.116;2023-04-04T01:16:47;92911.75;;;6.60;100.00
55590;BME280;41452;42.780;23.116;2023-04-04T01:19:19;92921.28;;;6.71;100.00
55590;BME280;41452;42.780;23.116;2023-04-04T01:21:47;92922.97;;;6.77;100.00
55590;BME280;41452;42.780;23.116;2023-04-04T01:24:15;92928.78;;;6.84;100.00
55590;BME280;41452;42.780;23.116;2023-04-04T01:26:41;92903.88;;;6.77;100.00
55590;BME280;41452;42.780;23.116;2023-04-04T01:29:07;92922.72;;;6.79;100.00
55590;BME280;41452;42.780;23.116;2023-04-04T01:31:36;92902.00;;;6.72;100.00
55590;BME280;41452;42.780;23.116;2023-04-04T01:36:49;92928.56;;;6.86;100.00
55590;BME280;41452;42.780;23.116;2023-04-04T01:39:26;92934.34;;;6.71;100.00
55590;BME280;41452;42.780;23.116;2023-04-04T01:41:53;92926.88;;;6.58;100.00
55590;BME280;41452;42.780;23.116;2023-04-04T01:44:20;92916.91;;;6.55;100.00
55590;BME280;41452;42.780;23.116;2023-04-04T01:46:52;92907.44;;;6.49;100.00
55590;BME280;41452;42.780;23.116;2023-04-04T01:49:17;92910.59;;;6.51;100.00
55590;BME280;41452;42.780;23.116;2023-04-04T01:51:43;92902.34;;;6.59;100.00
55590;BME280;41452;42.780;23.116;2023-04-04T01:54:09;92902.00;;;6.72;100.00
55590;BME280;41452;42.780;23.116;2023-04-04T01:56:34;92878.22;;;6.69;100.00
55590;BME280;41452;42.780;23.116;2023-04-04T01:59:00;92880.72;;;6.80;100.00
55590;BME280;41452;42.780;23.116;2023-04-04T02:01:25;92886.91;;;6.96;100.00
55590;BME280;41452;42.780;23.116;2023-04-04T02:03:50;92885.16;;;7.02;100.00
55590;BME280;41452;42.780;23.116;2023-04-04T02:06:16;92878.94;;;6.64;100.00
55590;BME280;41452;42.780;23.116;2023-04-04T02:08:42;92873.84;;;6.74;100.00
55590;BME280;41452;42.780;23.116;2023-04-04T02:11:07;92854.31;;;6.77;100.00
55590;BME280;41452;42.780;23.116;2023-04-04T02:13:32;92869.25;;;6.81;100.00
55590;BME280;41452;42.780;23.116;2023-04-04T02:15:58;92865.56;;;6.77;100.00
55590;BME280;41452;42.780;23.116;2023-04-04T02:18:23;92851.22;;;6.58;100.00
55590;BME280;41452;42.780;23.116;2023-04-04T02:20:54;92842.84;;;6.56;100.00
55590;BME280;41452;42.780;23.116;2023-04-04T02:23:20;92873.06;;;6.74;100.00
55590;BME280;41452;42.780;23.116;2023-04-04T02:25:49;92880.09;;;6.73;100.00
55590;BME280;41452;42.780;23.116;2023-04-04T02:28:14;92882.84;;;6.83;100.00
55590;BME280;41452;42.780;23.116;2023-04-04T02:30:39;92879.28;;;6.90;100.00
55590;BME280;41452;42.780;23.116;2023-04-04T02:33:05;92892.38;;;6.95;100.00
55590;BME280;41452;42.780;23.116;2023-04-04T02:35:31;92880.34;;;6.94;100.00
55590;BME280;41452;42.780;23.116;2023-04-04T02:37:56;92897.41;;;7.01;100.00
55590;BME280;41452;42.780;23.116;2023-04-04T02:40:22;92869.13;;;6.93;100.00
55590;BME280;41452;42.780;23.116;2023-04-04T02:42:47;92884.03;;;6.98;100.00
55590;BME280;41452;42.780;23.116;2023-04-04T02:45:13;92874.13;;;6.95;100.00
55590;BME280;41452;42.780;23.116;2023-04-04T02:47:39;92904.09;;;7.14;100.00
55590;BME280;41452;42.780;23.116;2023-04-04T02:50:05;92903.28;;;7.14;100.00
55590;BME280;41452;42.780;23.116;2023-04-04T02:52:30;92892.38;;;6.95;100.00
55590;BME280;41452;42.780;23.116;2023-04-04T02:54:57;92901.59;;;7.02;100.00
55590;BME280;41452;42.780;23.116;2023-04-04T02:57:22;92902.94;;;7.05;100.00
55590;BME280;41452;42.780;23.116;2023-04-04T02:59:47;92894.78;;;7.01;100.00
55590;BME280;41452;42.780;23.116;2023-04-04T03:02:13;92909.31;;;7.14;100.00
55590;BME280;41452;42.780;23.116;2023-04-04T03:04:38;92907.72;;;7.13;100.00
55590;BME280;41452;42.780;23.116;2023-04-04T03:07:03;92903.97;;;7.04;100.00
55590;BME280;41452;42.780;23.116;2023-04-04T03:09:29;92913.97;;;7.12;100.00
55590;BME280;41452;42.780;23.116;2023-04-04T03:11:54;92913.50;;;7.15;100.00
55590;BME280;41452;42.780;23.116;2023-04-04T03:14:20;92910.09;;;7.15;100.00
55590;BME280;41452;42.780;23.116;2023-04-04T03:16:47;92891.94;;;7.03;100.00
55590;BME280;41452;42.780;23.116;2023-04-04T03:19:14;92910.81;;;7.10;100.00
55590;BME280;41452;42.780;23.116;2023-04-04T03:21:40;92900.38;;;7.10;100.00
55590;BME280;41452;42.780;23.116;2023-04-04T03:24:05;92905.34;;;7.12;100.00
55590;BME280;41452;42.780;23.116;2023-04-04T03:26:31;92896.19;;;7.09;100.00
55590;BME280;41452;42.780;23.116;2023-04-04T03:28:56;92908.56;;;7.19;100.00
55590;BME280;41452;42.780;23.116;2023-04-04T03:31:22;92907.06;;;7.23;100.00
55590;BME280;41452;42.780;23.116;2023-04-04T03:33:47;92897.34;;;7.18;100.00
55590;BME280;41452;42.780;23.116;2023-04-04T03:36:13;92901.50;;;7.19;100.00
55590;BME280;41452;42.780;23.116;2023-04-04T03:38:39;92892.97;;;7.24;100.00
55590;BME280;41452;42.780;23.116;2023-04-04T03:41:05;92900.56;;;7.26;100.00
55590;BME280;41452;42.780;23.116;2023-04-04T03:43:31;92901.34;;;7.26;100.00
55590;BME280;41452;42.780;23.116;2023-04-04T03:46:01;92891.34;;;7.18;100.00
55590;BME280;41452;42.780;23.116;2023-04-04T03:48:27;92901.50;;;7.19;100.00
55590;BME280;41452;42.780;23.116;2023-04-04T03:50:52;92888.91;;;7.11;100.00
55590;BME280;41452;42.780;23.116;2023-04-04T03:53:17;92885.81;;;7.14;100.00
55590;BME280;41452;42.780;23.116;2023-04-04T03:55:43;92903.72;;;7.28;100.00
55590;BME280;41452;42.780;23.116;2023-04-04T03:58:08;92909.47;;;7.30;100.00
55590;BME280;41452;42.780;23.116;2023-04-04T04:00:34;92879.25;;;7.12;100.00
55590;BME280;41452;42.780;23.116;2023-04-04T04:02:59;92895.56;;;7.24;100.00
55590;BME280;41452;42.780;23.116;2023-04-04T04:05:25;92902.09;;;7.21;100.00
55590;BME280;41452;42.780;23.116;2023-04-04T04:07:50;92907.78;;;7.18;100.00
55590;BME280;41452;42.780;23.116;2023-04-04T04:10:17;92895.09;;;7.05;100.00
55590;BME280;41452;42.780;23.116;2023-04-04T04:12:42;92918.22;;;7.18;100.00
55590;BME280;41452;42.780;23.116;2023-04-04T04:15:08;92891.47;;;7.06;100.00
55590;BME280;41452;42.780;23.116;2023-04-04T04:17:33;92912.16;;;7.13;100.00
55590;BME280;41452;42.780;23.116;2023-04-04T04:19:58;92899.22;;;7.01;100.00
55590;BME280;41452;42.780;23.116;2023-04-04T04:22:24;92894.50;;;6.98;100.00
55590;BME280;41452;42.780;23.116;2023-04-04T04:24:49;92919.47;;;7.11;100.00
55590;BME280;41452;42.780;23.116;2023-04-04T04:27:15;92915.25;;;7.10;100.00
55590;BME280;41452;42.780;23.116;2023-04-04T04:29:40;92912.59;;;7.04;100.00
55590;BME280;41452;42.780;23.116;2023-04-04T04:32:06;92918.16;;;7.13;100.00
55590;BME280;41452;42.780;23.116;2023-04-04T04:34:31;92925.81;;;7.20;100.00
55590;BME280;41452;42.780;23.116;2023-04-04T04:36:57;92926.38;;;7.22;100.00
55590;BME280;41452;42.780;23.116;2023-04-04T04:39:22;92928.75;;;7.23;100.00
55590;BME280;41452;42.780;23.116;2023-04-04T04:41:47;92925.53;;;7.16;100.00
55590;BME280;41452;42.780;23.116;2023-04-04T04:44:13;92942.41;;;7.31;100.00
55590;BME280;41452;42.780;23.116;2023-04-04T04:46:38;92923.94;;;7.15;100.00
55590;BME280;41452;42.780;23.116;2023-04-04T04:49:04;92943.66;;;7.28;100.00
55590;BME280;41452;42.780;23.116;2023-04-04T04:51:29;92950.22;;;7.31;100.00
55590;BME280;41452;42.780;23.116;2023-04-04T04:53:54;92931.06;;;7.20;100.00
55590;BME280;41452;42.780;23.116;2023-04-04T04:56:20;92956.53;;;7.35;100.00
55590;BME280;41452;42.780;23.116;2023-04-04T04:58:45;92918.88;;;7.09;100.00
55590;BME280;41452;42.780;23.116;2023-04-04T05:01:12;92952.78;;;7.26;100.00
55590;BME280;41452;42.780;23.116;2023-04-04T05:03:38;92961.47;;;7.31;100.00
55590;BME280;41452;42.780;23.116;2023-04-04T05:06:03;92944.09;;;7.20;100.00
55590;BME280;41452;42.780;23.116;2023-04-04T05:08:29;92961.63;;;7.24;100.00
55590;BME280;41452;42.780;23.116;2023-04-04T05:10:54;92939.00;;;7.08;100.00
55590;BME280;41452;42.780;23.116;2023-04-04T05:13:20;92972.81;;;7.20;100.00
55590;BME280;41452;42.780;23.116;2023-04-04T05:15:45;92972.75;;;7.15;100.00
55590;BME280;41452;42.780;23.116;2023-04-04T05:18:11;92976.91;;;7.11;100.00
55590;BME280;41452;42.780;23.116;2023-04-04T05:20:37;92962.91;;;7.00;100.00
55590;BME280;41452;42.780;23.116;2023-04-04T05:23:02;92984.97;;;7.09;100.00
55590;BME280;41452;42.780;23.116;2023-04-04T05:25:27;92964.28;;;6.85;100.00
55590;BME280;41452;42.780;23.116;2023-04-04T05:27:53;92978.75;;;6.93;100.00
55590;BME280;41452;42.780;23.116;2023-04-04T05:30:20;92992.84;;;6.75;100.00
55590;BME280;41452;42.780;23.116;2023-04-04T05:32:45;92992.63;;;6.60;100.00
55590;BME280;41452;42.780;23.116;2023-04-04T05:35:11;92998.25;;;6.35;100.00
55590;BME280;41452;42.780;23.116;2023-04-04T05:37:39;92968.56;;;5.90;100.00
55590;BME280;41452;42.780;23.116;2023-04-04T05:40:06;93001.38;;;6.03;100.00
55590;BME280;41452;42.780;23.116;2023-04-04T05:42:32;93007.31;;;5.86;100.00
55590;BME280;41452;42.780;23.116;2023-04-04T05:44:57;92994.03;;;5.59;100.00
55590;BME280;41452;42.780;23.116;2023-04-04T05:47:23;93011.19;;;5.43;100.00
55590;BME280;41452;42.780;23.116;2023-04-04T05:49:48;93013.63;;;5.21;100.00
55590;BME280;41452;42.780;23.116;2023-04-04T05:52:13;92991.84;;;4.87;100.00
55590;BME280;41452;42.780;23.116;2023-04-04T05:54:39;92988.00;;;4.54;100.00
55590;BME280;41452;42.780;23.116;2023-04-04T05:57:04;93021.59;;;4.67;100.00
55590;BME280;41452;42.780;23.116;2023-04-04T05:59:29;93014.91;;;4.48;100.00
55590;BME280;41452;42.780;23.116;2023-04-04T06:01:55;93035.94;;;4.46;100.00
55590;BME280;41452;42.780;23.116;2023-04-04T06:04:20;93037.03;;;4.38;100.00
55590;BME280;41452;42.780;23.116;2023-04-04T06:06:45;93015.25;;;3.97;100.00
55590;BME280;41452;42.780;23.116;2023-04-04T06:09:11;93043.19;;;4.14;100.00
55590;BME280;41452;42.780;23.116;2023-04-04T06:11:36;93046.78;;;4.01;100.00
55590;BME280;41452;42.780;23.116;2023-04-04T06:14:02;93056.38;;;4.00;100.00
55590;BME280;41452;42.780;23.116;2023-04-04T06:16:27;93050.00;;;3.85;100.00
55590;BME280;41452;42.780;23.116;2023-04-04T06:18:53;93049.88;;;3.79;100.00
55590;BME280;41452;42.780;23.116;2023-04-04T06:21:18;93058.97;;;3.70;100.00
55590;BME280;41452;42.780;23.116;2023-04-04T06:23:43;93017.91;;;3.30;100.00
55590;BME280;41452;42.780;23.116;2023-04-04T06:26:09;93059.94;;;3.39;100.00
55590;BME280;41452;42.780;23.116;2023-04-04T06:28:34;93064.56;;;3.37;100.00
55590;BME280;41452;42.780;23.116;2023-04-04T06:31:00;93076.31;;;3.39;100.00
55590;BME280;41452;42.780;23.116;2023-04-04T06:33:26;93055.13;;;3.24;100.00
55590;BME280;41452;42.780;23.116;2023-04-04T06:35:51;93076.03;;;3.29;100.00
55590;BME280;41452;42.780;23.116;2023-04-04T06:38:16;93085.97;;;3.32;100.00
55590;BME280;41452;42.780;23.116;2023-04-04T06:40:42;93092.81;;;3.27;100.00
55590;BME280;41452;42.780;23.116;2023-04-04T06:43:07;93098.50;;;3.17;100.00
55590;BME280;41452;42.780;23.116;2023-04-04T06:45:33;93101.06;;;2.98;100.00
55590;BME280;41452;42.780;23.116;2023-04-04T06:48:00;93113.75;;;3.07;100.00
55590;BME280;41452;42.780;23.116;2023-04-04T06:50:28;93107.84;;;2.99;100.00
55590;BME280;41452;42.780;23.116;2023-04-04T06:52:54;93125.00;;;3.00;100.00
55590;BME280;41452;42.780;23.116;2023-04-04T06:55:19;93131.03;;;2.94;100.00
55590;BME280;41452;42.780;23.116;2023-04-04T06:57:45;93085.97;;;2.70;100.00
55590;BME280;41452;42.780;23.116;2023-04-04T07:00:11;93134.19;;;2.96;100.00
55590;BME280;41452;42.780;23.116;2023-04-04T07:02:36;93139.38;;;2.96;100.00
55590;BME280;41452;42.780;23.116;2023-04-04T07:05:02;93141.28;;;2.82;100.00
55590;BME280;41452;42.780;23.116;2023-04-04T07:07:28;93146.88;;;2.86;100.00
55590;BME280;41452;42.780;23.116;2023-04-04T07:09:54;93142.50;;;2.80;100.00
55590;BME280;41452;42.780;23.116;2023-04-04T07:12:19;93129.66;;;2.66;100.00
55590;BME280;41452;42.780;23.116;2023-04-04T07:14:45;93154.03;;;2.84;100.00
55590;BME280;41452;42.780;23.116;2023-04-04T07:17:10;93122.72;;;2.60;100.00
55590;BME280;41452;42.780;23.116;2023-04-04T07:19:36;93153.13;;;2.72;100.00
55590;BME280;41452;42.780;23.116;2023-04-04T07:22:01;93144.88;;;2.56;100.00
55590;BME280;41452;42.780;23.116;2023-04-04T07:24:27;93179.97;;;2.84;100.00
55590;BME280;41452;42.780;23.116;2023-04-04T07:26:52;93183.00;;;2.81;100.00
55590;BME280;41452;42.780;23.116;2023-04-04T07:29:18;93187.19;;;2.82;100.00
55590;BME280;41452;42.780;23.116;2023-04-04T07:31:45;93192.47;;;2.69;100.00
55590;BME280;41452;42.780;23.116;2023-04-04T07:34:10;93176.75;;;2.63;100.00
55590;BME280;41452;42.780;23.116;2023-04-04T07:36:36;93216.03;;;2.60;100.00
55590;BME280;41452;42.780;23.116;2023-04-04T07:39:01;93217.81;;;2.66;100.00
55590;BME280;41452;42.780;23.116;2023-04-04T07:41:26;93203.09;;;2.54;100.00
55590;BME280;41452;42.780;23.116;2023-04-04T07:43:52;93207.06;;;2.63;100.00
55590;BME280;41452;42.780;23.116;2023-04-04T07:46:17;93221.19;;;2.67;100.00
55590;BME280;41452;42.780;23.116;2023-04-04T07:48:44;93223.41;;;2.63;100.00
55590;BME280;41452;42.780;23.116;2023-04-04T07:51:09;93225.69;;;2.46;100.00
55590;BME280;41452;42.780;23.116;2023-04-04T07:53:35;93209.66;;;2.24;100.00
55590;BME280;41452;42.780;23.116;2023-04-04T07:56:00;93222.69;;;2.43;100.00
55590;BME280;41452;42.780;23.116;2023-04-04T07:58:34;93244.25;;;2.43;100.00
55590;BME280;41452;42.780;23.116;2023-04-04T08:01:01;93207.06;;;2.24;100.00
55590;BME280;41452;42.780;23.116;2023-04-04T08:03:27;93188.19;;;2.11;100.00
55590;BME280;41452;42.780;23.116;2023-04-04T08:05:52;93231.03;;;2.52;100.00
55590;BME280;41452;42.780;23.116;2023-04-04T08:08:18;93232.16;;;2.62;100.00
55590;BME280;41452;42.780;23.116;2023-04-04T08:10:44;93236.34;;;2.70;100.00
55590;BME280;41452;42.780;23.116;2023-04-04T08:13:10;93208.25;;;2.60;100.00
55590;BME280;41452;42.780;23.116;2023-04-04T08:15:36;93229.25;;;2.84;100.00
55590;BME280;41452;42.780;23.116;2023-04-04T08:18:01;93235.66;;;2.81;100.00
55590;BME280;41452;42.780;23.116;2023-04-04T08:20:27;93257.19;;;2.82;100.00
55590;BME280;41452;42.780;23.116;2023-04-04T08:22:52;93259.31;;;2.60;100.00
55590;BME280;41452;42.780;23.116;2023-04-04T08:25:18;93260.31;;;2.59;100.00
55590;BME280;41452;42.780;23.116;2023-04-04T08:27:44;93231.34;;;2.30;100.00
55590;BME280;41452;42.780;23.116;2023-04-04T08:30:10;93269.72;;;2.53;100.00
55590;BME280;41452;42.780;23.116;2023-04-04T08:32:36;93264.16;;;2.50;100.00
55590;BME280;41452;42.780;23.116;2023-04-04T08:35:02;93263.75;;;2.53;100.00
55590;BME280;41452;42.780;23.116;2023-04-04T08:37:27;93263.94;;;2.51;100.00
55590;BME280;41452;42.780;23.116;2023-04-04T08:39:53;93278.91;;;2.49;100.00
55590;BME280;41452;42.780;23.116;2023-04-04T08:42:19;93274.69;;;2.55;100.00
55590;BME280;41452;42.780;23.116;2023-04-04T08:44:47;93281.69;;;2.54;100.00
55590;BME280;41452;42.780;23.116;2023-04-04T08:47:13;93284.84;;;2.56;100.00
55590;BME280;41452;42.780;23.116;2023-04-04T08:49:43;93289.19;;;2.62;100.00
55590;BME280;41452;42.780;23.116;2023-04-04T08:52:14;93290.59;;;2.65;100.00
55590;BME280;41452;42.780;23.116;2023-04-04T08:54:43;93239.91;;;2.31;100.00
55590;BME280;41452;42.780;23.116;2023-04-04T08:57:09;93285.84;;;2.55;100.00
55590;BME280;41452;42.780;23.116;2023-04-04T08:59:34;93293.44;;;2.50;100.00
55590;BME280;41452;42.780;23.116;2023-04-04T09:04:36;93279.97;;;2.28;100.00
55590;BME280;41452;42.780;23.116;2023-04-04T09:07:04;93290.34;;;2.35;100.00
55590;BME280;41452;42.780;23.116;2023-04-04T09:09:33;93316.19;;;2.48;100.00
55590;BME280;41452;42.780;23.116;2023-04-04T09:12:01;93268.72;;;1.96;100.00
55590;BME280;41452;42.780;23.116;2023-04-04T09:14:28;93329.78;;;2.30;100.00
55590;BME280;41452;42.780;23.116;2023-04-04T09:16:55;93312.88;;;2.27;100.00
55590;BME280;41452;42.780;23.116;2023-04-04T09:19:21;93303.38;;;2.08;100.00
55590;BME280;41452;42.780;23.116;2023-04-04T09:21:47;93314.25;;;2.23;100.00
55590;BME280;41452;42.780;23.116;2023-04-04T09:24:13;93308.50;;;2.21;100.00
55590;BME280;41452;42.780;23.116;2023-04-04T09:26:46;93330.97;;;2.34;100.00
55590;BME280;41452;42.780;23.116;2023-04-04T09:29:12;93327.41;;;2.22;100.00
55590;BME280;41452;42.780;23.116;2023-04-04T09:31:38;93305.50;;;2.18;100.00
55590;BME280;41452;42.780;23.116;2023-04-04T09:34:03;93317.44;;;2.32;100.00
55590;BME280;41452;42.780;23.116;2023-04-04T09:36:29;93317.44;;;2.25;100.00
55590;BME280;41452;42.780;23.116;2023-04-04T09:38:55;93322.03;;;2.30;100.00
55590;BME280;41452;42.780;23.116;2023-04-04T09:41:21;93321.25;;;2.30;100.00
55590;BME280;41452;42.780;23.116;2023-04-04T09:43:46;93329.78;;;2.37;100.00
55590;BME280;41452;42.780;23.116;2023-04-04T09:46:12;93334.13;;;2.43;100.00
55590;BME280;41452;42.780;23.116;2023-04-04T09:48:47;93328.56;;;2.33;100.00
55590;BME280;41452;42.780;23.116;2023-04-04T09:51:14;93347.16;;;2.16;100.00
55590;BME280;41452;42.780;23.116;2023-04-04T09:53:40;93336.41;;;2.19;100.00
55590;BME280;41452;42.780;23.116;2023-04-04T09:56:06;93337.19;;;2.13;100.00
55590;BME280;41452;42.780;23.116;2023-04-04T09:58:32;93301.78;;;1.94;100.00
55590;BME280;41452;42.780;23.116;2023-04-04T10:01:01;93347.56;;;2.13;100.00
55590;BME280;41452;42.780;23.116;2023-04-04T10:03:28;93355.91;;;2.22;100.00
55590;BME280;41452;42.780;23.116;2023-04-04T10:05:59;93340.41;;;2.15;100.00
55590;BME280;41452;42.780;23.116;2023-04-04T10:08:26;93330.88;;;1.96;100.00
55590;BME280;41452;42.780;23.116;2023-04-04T10:11:00;93340.03;;;2.05;100.00
55590;BME280;41452;42.780;23.116;2023-04-04T10:13:30;93340.63;;;2.07;100.00
55590;BME280;41452;42.780;23.116;2023-04-04T10:15:58;93350.38;;;2.12;100.00
55590;BME280;41452;42.780;23.116;2023-04-04T10:18:29;93332.03;;;2.13;100.00
55590;BME280;41452;42.780;23.116;2023-04-04T10:20:56;93344.19;;;2.06;100.00
55590;BME280;41452;42.780;23.116;2023-04-04T10:23:23;93340.03;;;2.05;100.00
55590;BME280;41452;42.780;23.116;2023-04-04T10:25:50;93327.09;;;1.92;100.00
55590;BME280;41452;42.780;23.116;2023-04-04T10:28:17;93332.28;;;1.85;100.00
55590;BME280;41452;42.780;23.116;2023-04-04T10:30:50;93351.56;;;2.02;100.00
55590;BME280;41452;42.780;23.116;2023-04-04T10:33:31;93318.53;;;1.84;100.00
55590;BME280;41452;42.780;23.116;2023-04-04T10:36:02;93323.31;;;1.94;100.00
55590;BME280;41452;42.780;23.116;2023-04-04T10:38:30;93356.75;;;2.09;100.00
55590;BME280;41452;42.780;23.116;2023-04-04T10:40:59;93364.31;;;2.04;100.00
55590;BME280;41452;42.780;23.116;2023-04-04T10:43:31;93350.78;;;2.02;100.00
55590;BME280;41452;42.780;23.116;2023-04-04T10:46:02;93375.50;;;2.04;100.00
55590;BME280;41452;42.780;23.116;2023-04-04T10:48:32;93373.06;;;2.09;100.00
55590;BME280;41452;42.780;23.116;2023-04-04T10:50:58;93365.69;;;2.13;100.00
55590;BME280;41452;42.780;23.116;2023-04-04T10:53:24;93352.16;;;2.11;100.00
55590;BME280;41452;42.780;23.116;2023-04-04T10:55:50;93348.38;;;2.07;100.00
55590;BME280;41452;42.780;23.116;2023-04-04T10:58:16;93376.88;;;2.20;100.00
55590;BME280;41452;42.780;23.116;2023-04-04T11:00:49;93371.88;;;2.12;100.00
55590;BME280;41452;42.780;23.116;2023-04-04T11:03:19;93379.84;;;2.17;100.00
55590;BME280;41452;42.780;23.116;2023-04-04T11:05:45;93387.22;;;2.20;100.00
55590;BME280;41452;42.780;23.116;2023-04-04T11:08:23;93394.81;;;2.15;100.00
55590;BME280;41452;42.780;23.116;2023-04-04T11:10:53;93390.59;;;2.14;100.00
55590;BME280;41452;42.780;23.116;2023-04-04T11:13:24;93393.41;;;2.13;100.00
55590;BME280;41452;42.780;23.116;2023-04-04T11:15:58;93379.47;;;2.00;100.00
55590;BME280;41452;42.780;23.116;2023-04-04T11:21:20;93391.81;;;1.92;100.00
55590;BME280;41452;42.780;23.116;2023-04-04T11:26:17;93410.13;;;2.17;100.00
55590;BME280;41452;42.780;23.116;2023-04-04T11:28:44;93411.53;;;2.13;100.00
55590;BME280;41452;42.780;23.116;2023-04-04T11:34:04;93393.03;;;1.82;100.00
55590;BME280;41452;42.780;23.116;2023-04-04T11:39:31;93423.69;;;1.99;100.00
55590;BME280;41452;42.780;23.116;2023-04-04T11:44:30;93408.56;;;1.82;100.00
55590;BME280;41452;42.780;23.116;2023-04-04T11:47:01;93423.31;;;1.82;100.00
55590;BME280;41452;42.780;23.116;2023-04-04T11:49:29;93401.78;;;1.61;100.00
55590;BME280;41452;42.780;23.116;2023-04-04T11:51:56;93430.28;;;1.81;100.00
55590;BME280;41452;42.780;23.116;2023-04-04T11:54:22;93426.09;;;1.87;100.00
55590;BME280;41452;42.780;23.116;2023-04-04T11:56:48;93431.06;;;1.82;100.00
55590;BME280;41452;42.780;23.116;2023-04-04T11:59:18;93397.41;;;1.75;100.00
55590;BME280;41452;42.780;23.116;2023-04-04T12:01:44;93425.69;;;1.97;100.00
55590;BME280;41452;42.780;23.116;2023-04-04T12:04:10;93436.44;;;1.87;100.00
55590;BME280;41452;42.780;23.116;2023-04-04T12:06:38;93432.06;;;1.87;100.00
55590;BME280;41452;42.780;23.116;2023-04-04T12:09:05;93434.44;;;1.69;100.00
55590;BME280;41452;42.780;23.116;2023-04-04T12:11:35;93428.06;;;1.65;100.00
55590;BME280;41452;42.780;23.116;2023-04-04T12:14:00;93430.84;;;1.70;100.00
55590;BME280;41452;42.780;23.116;2023-04-04T12:16:27;93434.25;;;1.77;100.00
55590;BME280;41452;42.780;23.116;2023-04-04T12:18:52;93390.00;;;1.32;100.00
55590;BME280;41452;42.780;23.116;2023-04-04T12:21:18;93402.72;;;1.40;100.00
55590;BME280;41452;42.780;23.116;2023-04-04T12:23:45;93441.59;;;1.54;100.00
55590;BME280;41452;42.780;23.116;2023-04-04T12:26:13;93394.94;;;1.20;100.00
55590;BME280;41452;42.780;23.116;2023-04-04T12:28:39;93438.78;;;1.48;100.00
55590;BME280;41452;42.780;23.116;2023-04-04T12:31:05;93421.25;;;1.30;100.00
55590;BME280;41452;42.780;23.116;2023-04-04T12:33:32;93377.81;;;1.06;100.00
55590;BME280;41452;42.780;23.116;2023-04-04T12:35:59;93430.44;;;1.46;100.00
55590;BME280;41452;42.780;23.116;2023-04-04T12:38:24;93417.25;;;1.28;100.00
55590;BME280;41452;42.780;23.116;2023-04-04T12:40:51;93430.63;;;1.45;100.00
55590;BME280;41452;42.780;23.116;2023-04-04T12:43:17;93433.78;;;1.33;100.00
55590;BME280;41452;42.780;23.116;2023-04-04T12:45:44;93429.22;;;1.42;100.00
55590;BME280;41452;42.780;23.116;2023-04-04T12:48:14;93434.78;;;1.39;100.00
55590;BME280;41452;42.780;23.116;2023-04-04T12:50:52;93415.66;;;1.27;100.00
55590;BME280;41452;42.780;23.116;2023-04-04T12:53:19;93409.28;;;1.23;100.00
55590;BME280;41452;42.780;23.116;2023-04-04T12:55:46;93404.13;;;1.23;100.00
55590;BME280;41452;42.780;23.116;2023-04-04T12:58:15;93436.75;;;1.30;100.00
55590;BME280;41452;42.780;23.116;2023-04-04T13:00:41;93441.75;;;1.32;100.00
55590;BME280;41452;42.780;23.116;2023-04-04T13:03:07;93411.59;;;1.04;100.00
55590;BME280;41452;42.780;23.116;2023-04-04T13:05:33;93454.28;;;1.35;100.00